createdAt,value
2022-09-01T00:00:29.353Z,9.23
2022-09-01T00:05:23.725Z,7.47
2022-09-01T00:10:17.591Z,8.18
2022-09-01T00:15:12.875Z,8.73
2022-09-01T00:20:08.785Z,10.00
2022-09-01T00:25:03.615Z,6.63
2022-09-01T00:29:57.335Z,7.90
2022-09-01T00:34:50.535Z,10.85
2022-09-01T00:39:45.064Z,9.82
2022-09-01T00:44:39.375Z,9.15
2022-09-01T00:49:36.250Z,6.38
2022-09-01T00:54:34.408Z,7.97
2022-09-01T00:59:29.626Z,10.75
2022-09-01T01:04:23.110Z,6.90
2022-09-01T01:09:17.055Z,7.80
2022-09-01T01:14:12.322Z,10.13
2022-09-01T01:19:28.154Z,6.82
2022-09-01T01:24:27.698Z,9.00
2022-09-01T01:29:22.058Z,6.90
2022-09-01T01:34:19.915Z,7.93
2022-09-01T01:39:16.876Z,7.57
2022-09-01T01:44:13.402Z,10.77
2022-09-01T01:49:07.143Z,9.82
2022-09-01T01:54:05.637Z,9.00
2022-09-01T01:58:59.035Z,7.10
2022-09-01T02:03:54.930Z,7.63
2022-09-01T02:08:49.104Z,7.57
2022-09-01T02:13:42.354Z,7.80
2022-09-01T02:18:39.262Z,8.38
2022-09-01T02:23:33.957Z,9.48
2022-09-01T02:28:27.883Z,9.70
2022-09-01T02:33:23.121Z,8.23
2022-09-01T02:38:18.129Z,11.75
2022-09-01T02:43:13.666Z,8.20
2022-09-01T02:48:10.471Z,11.25
2022-09-01T02:53:09.874Z,9.32
2022-09-01T02:58:03.277Z,8.80
2022-09-01T03:03:02.905Z,9.50
2022-09-01T03:07:59.284Z,9.00
2022-09-01T03:12:55.908Z,10.05
2022-09-01T03:17:55.823Z,8.45
2022-09-01T03:22:51.822Z,10.00
2022-09-01T03:27:47.566Z,9.10
2022-09-01T03:32:42.263Z,10.40
2022-09-01T03:37:36.364Z,9.55
2022-09-01T03:42:31.167Z,8.20
2022-09-01T03:47:25.373Z,9.90
2022-09-01T03:52:19.575Z,9.50
2022-09-01T03:57:13.909Z,11.40
2022-09-01T04:02:09.360Z,9.00
2022-09-01T04:07:02.886Z,9.40
2022-09-01T04:12:00.425Z,9.77
2022-09-01T04:17:11.469Z,9.50
2022-09-01T04:22:08.199Z,9.80
2022-09-01T04:27:11.467Z,9.23
2022-09-01T04:32:10.028Z,10.73
2022-09-01T04:37:13.321Z,8.68
2022-09-01T04:42:09.467Z,10.02
2022-09-01T04:47:03.814Z,8.70
2022-09-01T04:51:57.307Z,9.65
2022-09-01T04:56:58.725Z,12.63
2022-09-01T05:01:57.736Z,9.48
2022-09-01T05:07:00.001Z,11.25
2022-09-01T05:12:10.510Z,10.95
2022-09-01T05:17:10.438Z,10.95
2022-09-01T05:22:04.938Z,9.57
2022-09-01T05:27:03.232Z,9.48
2022-09-01T05:32:10.412Z,9.25
2022-09-01T05:37:05.661Z,8.65
2022-09-01T05:42:01.749Z,13.95
2022-09-01T05:46:56.270Z,9.38
2022-09-01T05:51:52.737Z,9.80
2022-09-01T05:56:47.450Z,10.43
2022-09-01T06:02:19.748Z,9.85
2022-09-01T06:07:28.724Z,11.55
2022-09-01T06:12:28.334Z,10.27
2022-09-01T06:17:31.898Z,8.95
2022-09-01T06:22:30.116Z,9.75
2022-09-01T06:27:24.927Z,9.13
2022-09-01T06:32:26.137Z,11.13
2022-09-01T06:37:35.866Z,9.00
2022-09-01T06:42:35.490Z,9.77
2022-09-01T06:47:29.808Z,9.25
2022-09-01T06:52:23.839Z,9.38
2022-09-01T07:02:52.197Z,7.80
2022-09-01T07:08:17.960Z,8.32
2022-09-01T07:19:06.797Z,7.95
2022-09-01T07:29:41.658Z,7.80
2022-09-01T07:34:39.708Z,8.77
2022-09-01T07:39:51.766Z,9.65
2022-09-01T07:45:31.086Z,10.60
2022-09-01T07:51:34.250Z,12.85
2022-09-01T07:55:55.030Z,7.70
2022-09-01T08:00:54.654Z,9.98
2022-09-01T08:06:01.127Z,6.70
2022-09-01T08:11:04.398Z,7.32
2022-09-01T08:16:08.429Z,7.07
2022-09-01T08:21:23.408Z,8.25
2022-09-01T08:26:53.055Z,8.15
2022-09-01T08:31:59.405Z,8.00
2022-09-01T08:37:17.743Z,8.32
2022-09-01T08:42:33.322Z,12.20
2022-09-01T08:47:35.412Z,12.52
2022-09-01T08:52:34.178Z,17.10
2022-09-01T08:57:36.612Z,13.57
2022-09-01T09:03:07.721Z,15.15
2022-09-01T09:08:33.336Z,16.83
2022-09-01T09:13:44.612Z,15.25
2022-09-01T09:19:00.619Z,14.85
2022-09-01T09:24:02.458Z,15.60
2022-09-01T09:28:55.867Z,16.65
2022-09-01T09:33:52.812Z,18.77
2022-09-01T09:38:48.968Z,16.48
2022-09-01T09:43:48.327Z,15.10
2022-09-01T09:48:44.208Z,30.75
2022-09-01T09:53:40.678Z,21.85
2022-09-01T09:58:39.713Z,25.05
2022-09-01T10:03:43.615Z,20.38
2022-09-01T10:08:46.010Z,34.40
2022-09-01T10:13:39.415Z,36.33
2022-09-01T10:18:41.872Z,26.45
2022-09-01T10:23:38.749Z,29.48
2022-09-01T10:28:35.108Z,44.90
2022-09-01T10:33:30.168Z,43.80
2022-09-01T10:38:26.881Z,38.50
2022-09-01T10:43:28.568Z,31.80
2022-09-01T10:48:32.120Z,40.03
2022-09-01T10:53:40.650Z,36.47
2022-09-01T11:04:01.791Z,15.07
2022-09-01T11:09:02.289Z,8.68
2022-09-01T11:13:58.947Z,9.68
2022-09-01T11:18:52.710Z,6.40
2022-09-01T11:23:48.262Z,7.03
2022-09-01T11:28:46.250Z,7.28
2022-09-01T11:33:54.445Z,6.78
2022-09-01T11:38:55.119Z,6.90
2022-09-01T11:43:49.253Z,6.13
2022-09-01T11:48:47.913Z,7.35
2022-09-01T11:53:45.835Z,4.85
2022-09-01T11:58:42.084Z,6.00
2022-09-01T12:03:37.117Z,8.02
2022-09-01T12:08:35.024Z,8.27
2022-09-01T12:13:29.362Z,11.73
2022-09-01T12:18:28.311Z,7.15
2022-09-01T12:23:26.838Z,9.63
2022-09-01T12:28:20.398Z,5.97
2022-09-01T12:33:30.839Z,5.22
2022-09-01T12:38:30.011Z,7.35
2022-09-01T12:43:37.057Z,6.40
2022-09-01T12:48:33.909Z,5.72
2022-09-01T12:53:32.499Z,5.90
2022-09-01T12:58:27.873Z,4.53
2022-09-01T13:03:21.872Z,8.68
2022-09-01T13:08:19.275Z,5.28
2022-09-01T13:18:11.644Z,7.72
2022-09-01T13:23:05.317Z,6.28
2022-09-01T13:28:01.665Z,6.38
2022-09-01T13:38:10.640Z,5.05
2022-09-01T13:43:07.736Z,5.35
2022-09-01T13:48:19.048Z,4.50
2022-09-01T13:53:14.065Z,6.18
2022-09-01T13:58:11.085Z,5.63
2022-09-01T14:03:13.239Z,7.55
2022-09-01T14:08:21.184Z,5.82
2022-09-01T14:13:26.346Z,6.60
2022-09-01T14:18:22.332Z,9.13
2022-09-01T14:23:16.774Z,6.00
2022-09-01T14:28:11.798Z,6.05
2022-09-01T14:33:05.540Z,6.35
2022-09-01T14:38:16.768Z,5.85
2022-09-01T14:43:12.829Z,7.07
2022-09-01T14:48:06.803Z,5.65
2022-09-01T14:53:02.068Z,4.97
2022-09-01T14:57:58.083Z,7.25
2022-09-01T15:02:51.993Z,8.10
2022-09-01T15:07:45.911Z,8.13
2022-09-01T15:12:42.521Z,7.25
2022-09-01T15:17:39.664Z,5.47
2022-09-01T15:22:38.845Z,7.00
2022-09-01T15:27:32.514Z,7.22
2022-09-01T15:32:31.129Z,13.10
2022-09-01T15:37:26.251Z,10.05
2022-09-01T15:42:21.989Z,7.75
2022-09-01T15:47:19.189Z,7.22
2022-09-01T15:52:14.423Z,9.63
2022-09-01T15:57:09.267Z,8.40
2022-09-01T16:02:02.929Z,10.30
2022-09-01T16:06:57.023Z,6.53
2022-09-01T16:11:50.812Z,11.88
2022-09-01T16:16:54.791Z,5.68
2022-09-01T16:21:55.948Z,8.27
2022-09-01T16:26:50.510Z,6.57
2022-09-01T16:31:57.789Z,6.70
2022-09-01T16:37:00.060Z,7.28
2022-09-01T16:42:02.356Z,6.22
2022-09-01T16:47:08.532Z,8.23
2022-09-01T16:52:06.851Z,6.80
2022-09-01T16:57:11.678Z,6.85
2022-09-01T17:02:26.936Z,5.97
2022-09-01T17:07:30.684Z,9.30
2022-09-01T17:12:34.609Z,9.93
2022-09-01T17:17:48.285Z,10.93
2022-09-01T17:22:50.992Z,6.43
2022-09-01T17:27:53.069Z,8.32
2022-09-01T17:33:05.121Z,8.55
2022-09-01T17:38:18.725Z,8.90
2022-09-01T17:43:21.724Z,8.50
2022-09-01T17:48:23.509Z,11.20
2022-09-01T17:53:32.091Z,11.52
2022-09-01T17:58:45.722Z,9.50
2022-09-01T18:04:12.868Z,9.02
2022-09-01T18:09:09.779Z,10.32
2022-09-01T18:14:08.751Z,11.88
2022-09-01T18:19:06.335Z,10.80
2022-09-01T18:24:07.501Z,12.75
2022-09-01T18:29:02.114Z,9.40
2022-09-01T18:34:08.676Z,10.38
2022-09-01T18:39:15.507Z,8.95
2022-09-01T18:44:41.267Z,7.43
2022-09-01T18:49:53.592Z,8.35
2022-09-01T18:55:12.857Z,11.77
2022-09-01T19:00:18.815Z,12.05
2022-09-01T19:05:22.776Z,7.50
2022-09-01T19:10:22.960Z,9.35
2022-09-01T19:15:29.376Z,8.25
2022-09-01T19:20:32.086Z,10.13
2022-09-01T19:25:36.965Z,9.65
2022-09-01T19:30:35.362Z,8.43
2022-09-01T19:35:34.459Z,9.18
2022-09-01T19:40:39.941Z,11.52
2022-09-01T19:45:44.505Z,7.95
2022-09-01T19:50:45.900Z,7.45
2022-09-01T19:55:46.254Z,7.35
2022-09-01T20:00:51.206Z,6.75
2022-09-01T20:05:51.374Z,8.82
2022-09-01T20:10:57.733Z,5.97
2022-09-01T20:15:57.587Z,6.28
2022-09-01T20:20:52.515Z,9.35
2022-09-01T20:25:49.991Z,7.80
2022-09-01T20:30:59.725Z,6.38
2022-09-01T20:35:59.759Z,8.07
2022-09-01T20:40:55.822Z,5.93
2022-09-01T20:45:52.126Z,6.28
2022-09-01T20:51:11.565Z,7.50
2022-09-01T20:56:16.334Z,6.85
2022-09-01T21:01:30.134Z,7.05
2022-09-01T21:06:37.796Z,5.88
2022-09-01T21:11:44.374Z,7.40
2022-09-01T21:16:59.599Z,6.60
2022-09-01T21:22:04.370Z,6.75
2022-09-01T21:27:01.464Z,5.43
2022-09-01T21:31:59.933Z,6.03
2022-09-01T21:37:04.708Z,6.78
2022-09-01T21:42:24.556Z,5.95
2022-09-01T21:47:34.296Z,6.75
2022-09-01T21:52:29.568Z,5.40
2022-09-01T21:57:23.691Z,7.90
2022-09-01T22:02:17.287Z,6.75
2022-09-01T22:07:15.434Z,6.45
2022-09-01T22:12:14.036Z,6.07
2022-09-01T22:17:12.890Z,6.07
2022-09-01T22:22:06.737Z,7.85
2022-09-01T22:27:02.463Z,7.55
2022-09-01T22:31:57.423Z,9.50
2022-09-01T22:36:50.997Z,9.45
2022-09-01T22:41:46.232Z,6.50
2022-09-01T22:46:44.384Z,7.40
2022-09-01T22:51:50.790Z,7.07
2022-09-01T22:56:45.343Z,8.27
2022-09-01T23:01:42.855Z,9.07
2022-09-01T23:06:44.954Z,7.78
2022-09-01T23:11:42.224Z,9.15
2022-09-01T23:16:36.075Z,8.02
2022-09-01T23:21:33.701Z,9.75
2022-09-01T23:26:29.286Z,7.10
2022-09-01T23:31:25.908Z,9.93
2022-09-01T23:36:23.632Z,9.93
2022-09-01T23:41:23.258Z,10.02
2022-09-01T23:51:15.335Z,8.70
2022-09-01T23:56:17.069Z,9.25
